createdAt,value
2022-08-20T00:05:52.069Z,3.25
2022-08-20T00:16:01.007Z,3.42
2022-08-20T00:26:06.897Z,3.05
2022-08-20T00:36:12.236Z,3.25
2022-08-20T00:46:22.394Z,3.42
2022-08-20T00:56:36.266Z,3.50
2022-08-20T01:06:42.586Z,3.40
2022-08-20T01:16:49.227Z,3.63
2022-08-20T01:26:55.413Z,3.30
2022-08-20T01:36:59.811Z,3.25
2022-08-20T01:47:16.006Z,2.95
2022-08-20T01:57:22.701Z,3.03
2022-08-20T02:07:28.266Z,3.63
2022-08-20T02:17:32.126Z,3.45
2022-08-20T02:27:38.269Z,3.30
2022-08-20T02:37:43.937Z,2.75
2022-08-20T02:47:49.518Z,3.30
2022-08-20T02:57:55.210Z,3.35
2022-08-20T03:08:04.855Z,7.25
2022-08-20T03:18:08.922Z,4.03
2022-08-20T03:28:14.643Z,3.65
2022-08-20T03:38:21.487Z,3.75
2022-08-20T03:48:38.447Z,3.55
2022-08-20T03:58:42.126Z,3.05
2022-08-20T04:08:47.243Z,3.20
2022-08-20T04:18:56.038Z,3.10
2022-08-20T04:29:07.349Z,3.47
2022-08-20T04:39:11.135Z,3.42
2022-08-20T04:49:16.443Z,3.83
2022-08-20T04:59:20.147Z,3.53
2022-08-20T05:09:25.295Z,4.00
2022-08-20T05:19:29.836Z,4.72
2022-08-20T05:29:34.923Z,4.60
2022-08-20T05:39:38.824Z,9.70
2022-08-20T05:49:46.309Z,7.75
2022-08-20T05:59:50.218Z,7.03
2022-08-20T06:09:55.267Z,6.60
2022-08-20T06:19:59.044Z,6.07
2022-08-20T06:30:06.532Z,5.85
2022-08-20T06:40:14.556Z,5.75
2022-08-20T06:50:22.966Z,6.00
2022-08-20T07:00:28.737Z,6.15
2022-08-20T07:10:35.519Z,5.38
2022-08-20T07:20:40.478Z,4.78
2022-08-20T07:31:04.236Z,4.40
2022-08-20T07:41:17.478Z,7.75
2022-08-20T07:51:24.148Z,7.15
2022-08-20T08:01:41.575Z,7.20
2022-08-20T08:12:02.859Z,6.50
2022-08-20T08:22:11.452Z,6.43
2022-08-20T08:32:16.571Z,5.90
2022-08-20T08:42:30.182Z,5.18
2022-08-20T08:52:42.918Z,5.25
2022-08-20T09:02:59.437Z,3.78
2022-08-20T09:13:04.808Z,2.72
2022-08-20T09:23:08.589Z,2.42
2022-08-20T09:33:13.761Z,2.00
2022-08-20T09:43:17.497Z,2.05
2022-08-20T09:53:23.281Z,2.17
2022-08-20T10:03:27.062Z,2.10
2022-08-20T10:13:32.185Z,1.70
2022-08-20T10:23:35.871Z,0.93
2022-08-20T10:33:42.364Z,1.20
2022-08-20T10:43:48.826Z,1.08
2022-08-20T10:53:53.936Z,1.13
2022-08-20T11:03:57.626Z,1.30
2022-08-20T11:14:02.718Z,1.40
2022-08-20T11:24:07.026Z,1.40
2022-08-20T11:34:12.842Z,1.55
2022-08-20T11:44:21.251Z,1.30
2022-08-20T11:54:28.831Z,1.10
2022-08-20T12:04:33.814Z,1.30
2022-08-20T12:14:40.514Z,1.42
2022-08-20T12:24:44.586Z,1.10
2022-08-20T12:34:51.430Z,3.10
2022-08-20T12:44:55.239Z,1.20
2022-08-20T12:55:01.195Z,1.08
2022-08-20T13:05:06.110Z,0.80
2022-08-20T13:15:13.138Z,0.90
2022-08-20T13:25:19.753Z,0.93
2022-08-20T13:35:25.577Z,0.80
2022-08-20T13:45:29.350Z,0.80
2022-08-20T13:55:34.691Z,0.70
2022-08-20T14:05:42.776Z,0.70
2022-08-20T14:15:51.242Z,0.75
2022-08-20T14:25:55.085Z,0.68
2022-08-20T14:36:00.317Z,0.80
2022-08-20T14:46:04.246Z,0.60
2022-08-20T14:56:09.715Z,1.40
2022-08-20T15:06:22.308Z,1.63
2022-08-20T15:16:28.218Z,1.45
2022-08-20T15:26:32.136Z,1.73
2022-08-20T15:36:37.265Z,1.73
2022-08-20T15:46:45.505Z,1.52
2022-08-20T15:57:01.327Z,1.90
2022-08-20T16:07:15.929Z,1.48
2022-08-20T16:17:32.062Z,1.50
2022-08-20T16:27:44.236Z,1.90
2022-08-20T16:38:01.123Z,1.60
2022-08-20T16:48:08.267Z,1.58
2022-08-20T16:58:13.363Z,1.80
2022-08-20T17:08:22.189Z,3.00
2022-08-20T17:18:33.886Z,1.48
2022-08-20T17:28:40.367Z,3.03
2022-08-20T17:38:51.630Z,1.73
2022-08-20T17:48:58.472Z,2.00
2022-08-20T17:59:10.866Z,2.50
2022-08-20T18:09:24.591Z,1.85
2022-08-20T18:20:00.605Z,2.22
2022-08-20T18:30:05.593Z,2.35
2022-08-20T18:40:27.736Z,2.70
2022-08-20T18:50:53.141Z,2.75
2022-08-20T19:01:01.697Z,3.10
2022-08-20T19:11:27.124Z,3.45
2022-08-20T19:21:36.347Z,3.80
2022-08-20T19:31:41.164Z,3.90
2022-08-20T19:41:51.361Z,4.20
2022-08-20T19:52:11.641Z,3.50
2022-08-20T20:02:21.809Z,4.55
2022-08-20T20:12:26.442Z,4.63
2022-08-20T20:22:35.560Z,4.75
2022-08-20T20:32:48.833Z,4.07
2022-08-20T20:43:05.701Z,7.78
2022-08-20T20:53:09.703Z,5.07
2022-08-20T21:03:15.162Z,7.35
2022-08-20T21:13:18.909Z,4.05
2022-08-20T21:23:40.214Z,4.03
2022-08-20T21:33:48.009Z,4.40
2022-08-20T21:43:53.294Z,4.00
2022-08-20T21:53:57.105Z,3.90
2022-08-20T22:04:02.591Z,4.03
2022-08-20T22:14:09.797Z,4.05
2022-08-20T22:24:15.285Z,4.40
2022-08-20T22:34:21.660Z,4.03
2022-08-20T22:44:28.280Z,4.65
2022-08-20T22:54:32.063Z,4.45
2022-08-20T23:04:38.035Z,4.60
2022-08-20T23:14:42.134Z,4.65
2022-08-20T23:24:47.377Z,4.80
2022-08-20T23:34:51.139Z,4.47
2022-08-20T23:44:56.254Z,5.57
2022-08-20T23:54:59.997Z,5.13
